sensor_id;sensor_type;location;lat;lon;timestamp;pressure;altitude;pressure_sealevel;temperature;humidity
33554;BME280;19885;42.208;24.952;2023-01-29T00:01:50;100029.56;;;4.44;83.97
33554;BME280;19885;42.208;24.952;2023-01-29T00:04:16;100038.53;;;4.55;83.21
33554;BME280;19885;42.208;24.952;2023-01-29T00:06:42;100043.94;;;4.62;83.58
33554;BME280;19885;42.208;24.952;2023-01-29T00:09:08;100040.56;;;4.63;82.81
33554;BME280;19885;42.208;24.952;2023-01-29T00:11:34;100032.50;;;4.54;82.88
33554;BME280;19885;42.208;24.952;2023-01-29T00:13:59;100042.88;;;4.56;83.84
33554;BME280;19885;42.208;24.952;2023-01-29T00:16:25;100046.19;;;4.52;83.31
33554;BME280;19885;42.208;24.952;2023-01-29T00:18:50;100045.63;;;4.62;82.72
33554;BME280;19885;42.208;24.952;2023-01-29T00:21:18;100041.84;;;4.51;82.70
33554;BME280;19885;42.208;24.952;2023-01-29T00:23:44;100003.31;;;4.30;83.19
33554;BME280;19885;42.208;24.952;2023-01-29T00:26:10;100059.78;;;4.48;83.13
33554;BME280;19885;42.208;24.952;2023-01-29T00:28:36;100061.66;;;4.52;83.82
33554;BME280;19885;42.208;24.952;2023-01-29T00:31:15;100067.97;;;4.61;83.29
33554;BME280;19885;42.208;24.952;2023-01-29T00:33:40;100067.84;;;4.57;83.31
33554;BME280;19885;42.208;24.952;2023-01-29T00:36:08;100074.56;;;4.52;83.23
33554;BME280;19885;42.208;24.952;2023-01-29T00:38:34;100077.44;;;4.61;83.49
33554;BME280;19885;42.208;24.952;2023-01-29T00:41:07;100083.56;;;4.64;82.70
33554;BME280;19885;42.208;24.952;2023-01-29T00:43:52;100080.06;;;4.62;83.58
33554;BME280;19885;42.208;24.952;2023-01-29T00:46:36;100077.53;;;4.64;82.58
33554;BME280;19885;42.208;24.952;2023-01-29T00:49:02;100060.09;;;4.57;83.15
33554;BME280;19885;42.208;24.952;2023-01-29T00:51:28;100080.38;;;4.71;82.93
33554;BME280;19885;42.208;24.952;2023-01-29T00:53:53;100067.03;;;4.58;83.31
33554;BME280;19885;42.208;24.952;2023-01-29T00:56:26;100070.69;;;4.64;83.04
33554;BME280;19885;42.208;24.952;2023-01-29T00:58:52;100054.94;;;4.57;82.30
33554;BME280;19885;42.208;24.952;2023-01-29T01:01:18;100079.59;;;4.74;83.10
33554;BME280;19885;42.208;24.952;2023-01-29T01:04:04;100063.81;;;4.65;83.15
33554;BME280;19885;42.208;24.952;2023-01-29T01:06:30;100063.97;;;4.69;83.44
33554;BME280;19885;42.208;24.952;2023-01-29T01:08:56;100083.13;;;4.76;82.56
33554;BME280;19885;42.208;24.952;2023-01-29T01:11:40;100083.88;;;4.73;82.77
33554;BME280;19885;42.208;24.952;2023-01-29T01:14:05;100076.88;;;4.69;82.57
33554;BME280;19885;42.208;24.952;2023-01-29T01:16:33;100074.13;;;4.65;83.09
33554;BME280;19885;42.208;24.952;2023-01-29T01:18:59;100074.03;;;4.62;83.42
33554;BME280;19885;42.208;24.952;2023-01-29T01:21:24;100067.84;;;4.57;83.43
33554;BME280;19885;42.208;24.952;2023-01-29T01:23:50;100065.25;;;4.57;83.86
33554;BME280;19885;42.208;24.952;2023-01-29T01:26:17;100076.69;;;4.63;83.49
33554;BME280;19885;42.208;24.952;2023-01-29T01:28:42;100082.75;;;4.65;83.88
33554;BME280;19885;42.208;24.952;2023-01-29T01:31:09;100079.25;;;4.63;82.73
33554;BME280;19885;42.208;24.952;2023-01-29T01:33:35;100088.16;;;4.73;82.64
33554;BME280;19885;42.208;24.952;2023-01-29T01:36:02;100075.88;;;4.66;82.42
33554;BME280;19885;42.208;24.952;2023-01-29T01:38:27;100087.00;;;4.63;82.82
33554;BME280;19885;42.208;24.952;2023-01-29T01:40:53;100077.66;;;4.67;81.95
33554;BME280;19885;42.208;24.952;2023-01-29T01:43:18;100096.94;;;4.78;83.93
33554;BME280;19885;42.208;24.952;2023-01-29T01:45:44;100074.44;;;4.74;83.23
33554;BME280;19885;42.208;24.952;2023-01-29T01:48:25;100036.63;;;4.49;82.59
33554;BME280;19885;42.208;24.952;2023-01-29T01:50:56;100087.38;;;4.75;81.98
33554;BME280;19885;42.208;24.952;2023-01-29T01:53:27;100072.03;;;4.53;82.11
33554;BME280;19885;42.208;24.952;2023-01-29T01:55:57;100087.19;;;4.69;82.15
33554;BME280;19885;42.208;24.952;2023-01-29T01:58:36;100081.56;;;4.56;82.60
33554;BME280;19885;42.208;24.952;2023-01-29T02:01:06;100069.41;;;4.52;82.69
33554;BME280;19885;42.208;24.952;2023-01-29T02:03:40;100089.50;;;4.62;82.68
33554;BME280;19885;42.208;24.952;2023-01-29T02:06:26;100085.34;;;4.65;82.85
33554;BME280;19885;42.208;24.952;2023-01-29T02:09:19;100003.13;;;4.00;82.80
33554;BME280;19885;42.208;24.952;2023-01-29T02:12:04;100088.84;;;4.42;83.47
33554;BME280;19885;42.208;24.952;2023-01-29T02:14:34;100084.03;;;4.53;82.74
33554;BME280;19885;42.208;24.952;2023-01-29T02:17:04;100090.97;;;4.54;83.00
33554;BME280;19885;42.208;24.952;2023-01-29T02:30:58;100103.25;;;4.61;82.75
33554;BME280;19885;42.208;24.952;2023-01-29T02:44:40;100115.31;;;4.62;82.48
33554;BME280;19885;42.208;24.952;2023-01-29T02:47:21;100104.91;;;4.59;82.45
33554;BME280;19885;42.208;24.952;2023-01-29T02:52:42;100112.66;;;4.59;81.91
33554;BME280;19885;42.208;24.952;2023-01-29T02:55:22;100123.97;;;4.64;82.41
33554;BME280;19885;42.208;24.952;2023-01-29T02:57:53;100124.81;;;4.63;82.63
33554;BME280;19885;42.208;24.952;2023-01-29T03:00:27;100124.09;;;4.67;83.15
33554;BME280;19885;42.208;24.952;2023-01-29T03:05:26;100118.94;;;4.67;83.21
33554;BME280;19885;42.208;24.952;2023-01-29T03:08:01;100122.44;;;4.69;82.93
33554;BME280;19885;42.208;24.952;2023-01-29T03:10:39;100123.97;;;4.64;82.77
33554;BME280;19885;42.208;24.952;2023-01-29T03:13:21;100129.06;;;4.61;83.15
33554;BME280;19885;42.208;24.952;2023-01-29T03:15:58;100108.88;;;4.49;83.92
33554;BME280;19885;42.208;24.952;2023-01-29T03:18:30;100132.56;;;4.63;83.56
33554;BME280;19885;42.208;24.952;2023-01-29T03:21:02;100127.28;;;4.60;83.90
33554;BME280;19885;42.208;24.952;2023-01-29T03:23:50;100135.34;;;4.69;83.33
33554;BME280;19885;42.208;24.952;2023-01-29T03:26:36;100140.66;;;4.73;83.72
33554;BME280;19885;42.208;24.952;2023-01-29T03:29:21;100142.34;;;4.73;84.07
33554;BME280;19885;42.208;24.952;2023-01-29T03:32:04;100143.09;;;4.69;83.41
33554;BME280;19885;42.208;24.952;2023-01-29T03:34:39;100142.03;;;4.64;83.59
33554;BME280;19885;42.208;24.952;2023-01-29T03:37:15;100147.28;;;4.65;84.42
33554;BME280;19885;42.208;24.952;2023-01-29T03:39:43;100148.94;;;4.63;84.80
33554;BME280;19885;42.208;24.952;2023-01-29T03:50:11;100049.97;;;4.12;85.28
33554;BME280;19885;42.208;24.952;2023-01-29T03:52:50;100151.00;;;4.73;85.48
33554;BME280;19885;42.208;24.952;2023-01-29T03:58:24;100148.44;;;4.75;86.03
33554;BME280;19885;42.208;24.952;2023-01-29T04:01:00;100161.47;;;4.78;86.11
33554;BME280;19885;42.208;24.952;2023-01-29T04:03:34;100158.94;;;4.79;86.20
33554;BME280;19885;42.208;24.952;2023-01-29T04:06:20;100150.25;;;4.77;86.85
33554;BME280;19885;42.208;24.952;2023-01-29T04:09:42;100140.50;;;4.69;87.14
33554;BME280;19885;42.208;24.952;2023-01-29T04:12:03;100165.13;;;4.84;86.67
33554;BME280;19885;42.208;24.952;2023-01-29T04:14:31;100167.47;;;4.77;86.83
33554;BME280;19885;42.208;24.952;2023-01-29T04:16:59;100169.00;;;4.72;87.51
33554;BME280;19885;42.208;24.952;2023-01-29T04:19:26;100165.59;;;4.73;86.65
33554;BME280;19885;42.208;24.952;2023-01-29T04:22:00;100156.28;;;4.53;86.46
33554;BME280;19885;42.208;24.952;2023-01-29T04:24:26;100176.19;;;4.57;87.51
33554;BME280;19885;42.208;24.952;2023-01-29T04:26:57;100173.16;;;4.68;88.61
33554;BME280;19885;42.208;24.952;2023-01-29T04:32:18;100187.53;;;4.60;88.54
33554;BME280;19885;42.208;24.952;2023-01-29T04:38:07;100187.47;;;4.59;88.90
33554;BME280;19885;42.208;24.952;2023-01-29T04:40:50;100170.13;;;4.55;89.24
33554;BME280;19885;42.208;24.952;2023-01-29T04:59:20;100196.06;;;4.12;91.75
33554;BME280;19885;42.208;24.952;2023-01-29T05:01:49;100203.13;;;3.95;92.59
33554;BME280;19885;42.208;24.952;2023-01-29T05:04:17;100209.63;;;4.06;93.07
33554;BME280;19885;42.208;24.952;2023-01-29T05:06:44;100218.78;;;4.00;93.40
33554;BME280;19885;42.208;24.952;2023-01-29T05:09:13;100211.22;;;4.04;93.92
33554;BME280;19885;42.208;24.952;2023-01-29T05:11:41;100157.47;;;3.69;93.58
33554;BME280;19885;42.208;24.952;2023-01-29T05:14:12;100210.88;;;3.95;94.25
33554;BME280;19885;42.208;24.952;2023-01-29T05:16:43;100211.66;;;3.93;94.27
33554;BME280;19885;42.208;24.952;2023-01-29T05:19:13;100212.06;;;3.81;94.46
33554;BME280;19885;42.208;24.952;2023-01-29T05:21:45;100203.81;;;3.68;94.58
33554;BME280;19885;42.208;24.952;2023-01-29T05:26:43;100217.31;;;3.84;94.75
33554;BME280;19885;42.208;24.952;2023-01-29T05:29:28;100229.34;;;3.84;95.37
33554;BME280;19885;42.208;24.952;2023-01-29T05:31:55;100228.16;;;3.76;94.98
33554;BME280;19885;42.208;24.952;2023-01-29T05:34:23;100233.50;;;3.80;95.66
33554;BME280;19885;42.208;24.952;2023-01-29T05:36:49;100224.50;;;3.71;95.81
33554;BME280;19885;42.208;24.952;2023-01-29T05:39:15;100235.53;;;3.89;95.31
33554;BME280;19885;42.208;24.952;2023-01-29T05:41:41;100234.97;;;3.96;95.16
33554;BME280;19885;42.208;24.952;2023-01-29T05:44:06;100250.56;;;3.99;94.81
33554;BME280;19885;42.208;24.952;2023-01-29T05:46:32;100245.44;;;4.00;94.65
33554;BME280;19885;42.208;24.952;2023-01-29T05:48:57;100258.69;;;4.09;95.03
33554;BME280;19885;42.208;24.952;2023-01-29T05:51:23;100247.31;;;4.04;94.76
33554;BME280;19885;42.208;24.952;2023-01-29T05:53:49;100249.91;;;4.04;94.74
33554;BME280;19885;42.208;24.952;2023-01-29T05:56:14;100257.00;;;4.10;94.66
33554;BME280;19885;42.208;24.952;2023-01-29T05:58:40;100273.50;;;4.13;94.50
33554;BME280;19885;42.208;24.952;2023-01-29T06:01:17;100269.19;;;4.14;95.12
33554;BME280;19885;42.208;24.952;2023-01-29T06:03:43;100270.91;;;4.13;94.81
33554;BME280;19885;42.208;24.952;2023-01-29T06:06:09;100271.13;;;4.19;94.89
33554;BME280;19885;42.208;24.952;2023-01-29T06:08:35;100267.66;;;4.19;94.85
33554;BME280;19885;42.208;24.952;2023-01-29T06:11:01;100257.94;;;4.12;94.61
33554;BME280;19885;42.208;24.952;2023-01-29T06:13:26;100277.34;;;4.24;94.70
33554;BME280;19885;42.208;24.952;2023-01-29T06:15:52;100276.50;;;4.25;94.51
33554;BME280;19885;42.208;24.952;2023-01-29T06:18:17;100286.03;;;4.26;94.49
33554;BME280;19885;42.208;24.952;2023-01-29T06:20:43;100284.25;;;4.25;94.32
33554;BME280;19885;42.208;24.952;2023-01-29T06:23:09;100288.69;;;4.29;94.15
33554;BME280;19885;42.208;24.952;2023-01-29T06:25:34;100256.25;;;4.12;93.77
33554;BME280;19885;42.208;24.952;2023-01-29T06:28:00;100270.25;;;4.19;94.45
33554;BME280;19885;42.208;24.952;2023-01-29T06:30:26;100293.97;;;4.32;94.76
33554;BME280;19885;42.208;24.952;2023-01-29T06:32:57;100297.63;;;4.38;93.78
33554;BME280;19885;42.208;24.952;2023-01-29T06:35:23;100286.13;;;4.29;94.30
33554;BME280;19885;42.208;24.952;2023-01-29T06:37:49;100295.97;;;4.40;94.62
33554;BME280;19885;42.208;24.952;2023-01-29T06:40:15;100311.75;;;4.47;94.06
33554;BME280;19885;42.208;24.952;2023-01-29T06:42:40;100303.31;;;4.51;94.13
33554;BME280;19885;42.208;24.952;2023-01-29T06:45:06;100308.81;;;4.60;93.32
33554;BME280;19885;42.208;24.952;2023-01-29T06:47:32;100300.00;;;4.55;93.59
33554;BME280;19885;42.208;24.952;2023-01-29T06:49:57;100311.69;;;4.68;93.74
33554;BME280;19885;42.208;24.952;2023-01-29T06:52:23;100314.66;;;4.78;93.94
33554;BME280;19885;42.208;24.952;2023-01-29T06:54:55;100320.91;;;4.85;93.88
33554;BME280;19885;42.208;24.952;2023-01-29T06:57:21;100315.75;;;4.85;91.98
33554;BME280;19885;42.208;24.952;2023-01-29T06:59:47;100277.13;;;4.64;92.37
33554;BME280;19885;42.208;24.952;2023-01-29T07:02:13;100329.03;;;4.95;92.02
33554;BME280;19885;42.208;24.952;2023-01-29T07:04:38;100320.78;;;4.82;92.36
33554;BME280;19885;42.208;24.952;2023-01-29T07:07:06;100330.34;;;4.84;92.39
33554;BME280;19885;42.208;24.952;2023-01-29T07:09:40;100320.78;;;4.82;92.30
33554;BME280;19885;42.208;24.952;2023-01-29T07:12:06;100318.00;;;4.76;92.36
33554;BME280;19885;42.208;24.952;2023-01-29T07:14:32;100259.28;;;4.47;92.17
33554;BME280;19885;42.208;24.952;2023-01-29T07:16:58;100322.56;;;4.83;91.06
33554;BME280;19885;42.208;24.952;2023-01-29T07:19:23;100317.94;;;4.74;91.28
33554;BME280;19885;42.208;24.952;2023-01-29T07:21:49;100345.06;;;4.87;92.13
33554;BME280;19885;42.208;24.952;2023-01-29T07:24:14;100229.88;;;4.19;91.53
33554;BME280;19885;42.208;24.952;2023-01-29T07:26:43;100343.25;;;4.84;92.02
33554;BME280;19885;42.208;24.952;2023-01-29T07:29:09;100342.63;;;4.90;91.02
33554;BME280;19885;42.208;24.952;2023-01-29T07:31:34;100340.47;;;5.02;91.23
33554;BME280;19885;42.208;24.952;2023-01-29T07:34:00;100342.28;;;5.04;91.08
33554;BME280;19885;42.208;24.952;2023-01-29T07:36:25;100338.84;;;5.04;90.53
33554;BME280;19885;42.208;24.952;2023-01-29T07:38:51;100341.75;;;5.13;89.85
33554;BME280;19885;42.208;24.952;2023-01-29T07:41:17;100332.06;;;5.07;90.45
33554;BME280;19885;42.208;24.952;2023-01-29T07:43:42;100342.09;;;5.22;90.51
33554;BME280;19885;42.208;24.952;2023-01-29T07:46:07;100339.81;;;5.31;90.52
33554;BME280;19885;42.208;24.952;2023-01-29T07:48:33;100327.50;;;5.24;90.26
33554;BME280;19885;42.208;24.952;2023-01-29T07:50:59;100343.22;;;5.30;89.48
33554;BME280;19885;42.208;24.952;2023-01-29T07:53:25;100336.19;;;5.26;89.51
33554;BME280;19885;42.208;24.952;2023-01-29T07:55:51;100327.50;;;5.24;90.41
33554;BME280;19885;42.208;24.952;2023-01-29T07:58:17;100339.13;;;5.37;89.69
33554;BME280;19885;42.208;24.952;2023-01-29T08:00:42;100348.25;;;5.51;88.59
33554;BME280;19885;42.208;24.952;2023-01-29T08:03:10;100351.09;;;5.58;89.46
33554;BME280;19885;42.208;24.952;2023-01-29T08:05:36;100353.94;;;5.66;89.26
33554;BME280;19885;42.208;24.952;2023-01-29T08:08:02;100338.03;;;5.54;88.39
33554;BME280;19885;42.208;24.952;2023-01-29T08:10:28;100325.34;;;5.61;89.18
33554;BME280;19885;42.208;24.952;2023-01-29T08:12:58;100366.25;;;5.73;87.49
33554;BME280;19885;42.208;24.952;2023-01-29T08:15:24;100357.44;;;5.68;88.18
33554;BME280;19885;42.208;24.952;2023-01-29T08:17:50;100361.91;;;5.72;87.22
33554;BME280;19885;42.208;24.952;2023-01-29T08:20:17;100358.25;;;5.65;85.81
33554;BME280;19885;42.208;24.952;2023-01-29T08:22:42;100346.09;;;5.63;85.02
33554;BME280;19885;42.208;24.952;2023-01-29T08:25:08;100363.50;;;5.68;87.74
33554;BME280;19885;42.208;24.952;2023-01-29T08:27:34;100360.50;;;5.82;87.22
33554;BME280;19885;42.208;24.952;2023-01-29T08:29:59;100358.44;;;5.71;87.65
33554;BME280;19885;42.208;24.952;2023-01-29T08:32:24;100360.75;;;5.88;87.63
33554;BME280;19885;42.208;24.952;2023-01-29T08:34:50;100368.13;;;6.02;88.09
33554;BME280;19885;42.208;24.952;2023-01-29T08:37:15;100364.00;;;6.09;87.37
33554;BME280;19885;42.208;24.952;2023-01-29T08:39:43;100367.78;;;6.18;86.85
33554;BME280;19885;42.208;24.952;2023-01-29T08:42:09;100362.91;;;6.27;87.23
33554;BME280;19885;42.208;24.952;2023-01-29T08:44:35;100318.34;;;6.09;86.28
33554;BME280;19885;42.208;24.952;2023-01-29T08:47:00;100371.25;;;6.45;84.96
33554;BME280;19885;42.208;24.952;2023-01-29T08:49:26;100350.97;;;6.59;84.30
33554;BME280;19885;42.208;24.952;2023-01-29T08:51:53;100375.84;;;6.82;84.08
33554;BME280;19885;42.208;24.952;2023-01-29T08:54:21;100381.28;;;6.91;84.18
33554;BME280;19885;42.208;24.952;2023-01-29T08:56:46;100371.91;;;6.95;82.08
33554;BME280;19885;42.208;24.952;2023-01-29T08:59:12;100366.66;;;6.93;81.38
33554;BME280;19885;42.208;24.952;2023-01-29T09:01:37;100371.03;;;6.94;80.58
33554;BME280;19885;42.208;24.952;2023-01-29T09:04:03;100367.91;;;6.78;81.87
33554;BME280;19885;42.208;24.952;2023-01-29T09:06:28;100366.13;;;7.05;81.96
33554;BME280;19885;42.208;24.952;2023-01-29T09:08:53;100374.63;;;7.29;82.40
33554;BME280;19885;42.208;24.952;2023-01-29T09:11:19;100374.06;;;7.41;80.36
33554;BME280;19885;42.208;24.952;2023-01-29T09:13:44;100374.75;;;7.34;80.22
33554;BME280;19885;42.208;24.952;2023-01-29T09:16:10;100367.22;;;7.43;79.18
33554;BME280;19885;42.208;24.952;2023-01-29T09:18:35;100345.66;;;7.14;79.64
33554;BME280;19885;42.208;24.952;2023-01-29T09:21:01;100365.31;;;7.36;78.61
33554;BME280;19885;42.208;24.952;2023-01-29T09:23:28;100364.53;;;7.40;79.54
33554;BME280;19885;42.208;24.952;2023-01-29T09:25:54;100365.03;;;7.27;78.77
33554;BME280;19885;42.208;24.952;2023-01-29T09:28:20;100364.69;;;7.14;79.23
33554;BME280;19885;42.208;24.952;2023-01-29T09:30:45;100367.28;;;7.14;79.30
33554;BME280;19885;42.208;24.952;2023-01-29T09:33:11;100310.25;;;6.83;79.61
33554;BME280;19885;42.208;24.952;2023-01-29T09:35:39;100364.59;;;7.11;80.17
33554;BME280;19885;42.208;24.952;2023-01-29T09:38:05;100319.47;;;7.03;80.11
33554;BME280;19885;42.208;24.952;2023-01-29T09:40:40;100364.56;;;7.41;80.93
33554;BME280;19885;42.208;24.952;2023-01-29T09:43:18;100286.19;;;6.58;80.97
33554;BME280;19885;42.208;24.952;2023-01-29T09:45:52;100357.69;;;7.10;80.98
33554;BME280;19885;42.208;24.952;2023-01-29T09:48:21;100343.19;;;6.87;81.20
33554;BME280;19885;42.208;24.952;2023-01-29T09:50:50;100272.63;;;6.36;81.85
33554;BME280;19885;42.208;24.952;2023-01-29T09:53:20;100270.28;;;6.45;83.61
33554;BME280;19885;42.208;24.952;2023-01-29T09:56:34;100343.31;;;6.92;82.46
33554;BME280;19885;42.208;24.952;2023-01-29T09:58:37;100310.81;;;6.73;81.39
33554;BME280;19885;42.208;24.952;2023-01-29T10:14:13;100318.34;;;6.66;82.89
33554;BME280;19885;42.208;24.952;2023-01-29T10:19:52;100321.16;;;7.01;81.87
33554;BME280;19885;42.208;24.952;2023-01-29T10:22:29;100308.19;;;7.01;79.55
33554;BME280;19885;42.208;24.952;2023-01-29T10:27:32;100307.84;;;7.20;78.78
33554;BME280;19885;42.208;24.952;2023-01-29T10:29:59;100306.09;;;7.19;78.60
33554;BME280;19885;42.208;24.952;2023-01-29T10:32:27;100226.41;;;6.80;78.30
33554;BME280;19885;42.208;24.952;2023-01-29T10:35:12;100302.31;;;7.40;80.45
33554;BME280;19885;42.208;24.952;2023-01-29T10:37:42;100308.81;;;7.57;80.98
33554;BME280;19885;42.208;24.952;2023-01-29T10:40:19;100295.38;;;8.07;80.21
33554;BME280;19885;42.208;24.952;2023-01-29T10:51:24;100225.25;;;7.68;77.67
33554;BME280;19885;42.208;24.952;2023-01-29T10:56:54;100275.28;;;8.00;76.28
33554;BME280;19885;42.208;24.952;2023-01-29T11:02:07;100259.44;;;8.25;75.22
33554;BME280;19885;42.208;24.952;2023-01-29T11:04:37;100261.13;;;8.23;75.74
33554;BME280;19885;42.208;24.952;2023-01-29T11:07:03;100263.22;;;8.02;75.52
33554;BME280;19885;42.208;24.952;2023-01-29T11:09:35;100272.78;;;8.03;74.71
33554;BME280;19885;42.208;24.952;2023-01-29T11:12:15;100265.91;;;8.05;73.96
33554;BME280;19885;42.208;24.952;2023-01-29T11:20:31;100267.72;;;7.72;76.52
33554;BME280;19885;42.208;24.952;2023-01-29T11:22:57;100260.75;;;7.71;77.11
33554;BME280;19885;42.208;24.952;2023-01-29T11:25:23;100260.78;;;7.72;76.18
33554;BME280;19885;42.208;24.952;2023-01-29T11:27:55;100234.03;;;7.39;77.25
33554;BME280;19885;42.208;24.952;2023-01-29T11:30:34;100254.66;;;7.35;78.25
33554;BME280;19885;42.208;24.952;2023-01-29T11:35:30;100214.19;;;7.41;79.12
33554;BME280;19885;42.208;24.952;2023-01-29T11:40:41;100239.72;;;7.95;77.76
33554;BME280;19885;42.208;24.952;2023-01-29T11:43:20;100171.72;;;7.35;76.43
33554;BME280;19885;42.208;24.952;2023-01-29T11:45:52;100224.88;;;7.89;76.62
33554;BME280;19885;42.208;24.952;2023-01-29T11:48:22;100224.78;;;7.86;76.46
33554;BME280;19885;42.208;24.952;2023-01-29T11:50:52;100233.06;;;8.07;75.53
33554;BME280;19885;42.208;24.952;2023-01-29T11:53:32;100143.13;;;7.69;76.03
33554;BME280;19885;42.208;24.952;2023-01-29T11:55:59;100235.66;;;8.07;75.00
33554;BME280;19885;42.208;24.952;2023-01-29T11:58:32;100230.47;;;8.06;74.35
33554;BME280;19885;42.208;24.952;2023-01-29T12:00:58;100199.22;;;8.01;74.92
33554;BME280;19885;42.208;24.952;2023-01-29T12:03:33;100219.41;;;8.53;75.15
33554;BME280;19885;42.208;24.952;2023-01-29T12:06:11;100228.44;;;8.72;73.20
33554;BME280;19885;42.208;24.952;2023-01-29T12:08:39;100222.72;;;8.46;73.05
33554;BME280;19885;42.208;24.952;2023-01-29T12:11:30;100215.00;;;8.50;73.59
33554;BME280;19885;42.208;24.952;2023-01-29T12:14:03;100141.41;;;8.08;74.02
33554;BME280;19885;42.208;24.952;2023-01-29T12:19:26;100211.31;;;8.38;74.19
33554;BME280;19885;42.208;24.952;2023-01-29T12:22:03;100185.66;;;8.14;73.30
33554;BME280;19885;42.208;24.952;2023-01-29T12:30:16;100211.31;;;8.39;73.42
33554;BME280;19885;42.208;24.952;2023-01-29T12:33:10;100119.50;;;7.57;71.24
33554;BME280;19885;42.208;24.952;2023-01-29T12:35:47;100193.78;;;8.29;71.25
33554;BME280;19885;42.208;24.952;2023-01-29T12:38:19;100155.22;;;8.07;72.68
33554;BME280;19885;42.208;24.952;2023-01-29T12:40:51;100185.25;;;8.35;72.05
33554;BME280;19885;42.208;24.952;2023-01-29T12:45:52;100196.72;;;8.44;70.64
33554;BME280;19885;42.208;24.952;2023-01-29T12:48:23;100187.59;;;8.63;70.84
33554;BME280;19885;42.208;24.952;2023-01-29T12:50:52;100206.00;;;8.33;70.77
33554;BME280;19885;42.208;24.952;2023-01-29T12:53:33;100194.56;;;8.67;71.79
33554;BME280;19885;42.208;24.952;2023-01-29T12:56:11;100206.31;;;8.48;71.39
33554;BME280;19885;42.208;24.952;2023-01-29T12:58:44;100206.63;;;8.63;71.23
33554;BME280;19885;42.208;24.952;2023-01-29T13:01:19;100200.47;;;8.58;70.10
33554;BME280;19885;42.208;24.952;2023-01-29T13:06:28;100217.53;;;8.47;69.74
33554;BME280;19885;42.208;24.952;2023-01-29T13:08:58;100206.50;;;8.57;71.01
33554;BME280;19885;42.208;24.952;2023-01-29T13:14:00;100217.09;;;8.68;69.95
33554;BME280;19885;42.208;24.952;2023-01-29T13:16:35;100196.56;;;8.80;70.14
33554;BME280;19885;42.208;24.952;2023-01-29T13:19:18;100131.81;;;8.46;68.12
33554;BME280;19885;42.208;24.952;2023-01-29T13:21:46;100209.75;;;8.91;68.16
33554;BME280;19885;42.208;24.952;2023-01-29T13:24:17;100215.09;;;8.55;67.65
33554;BME280;19885;42.208;24.952;2023-01-29T13:26:45;100209.50;;;7.98;73.42
33554;BME280;19885;42.208;24.952;2023-01-29T13:29:29;100218.34;;;7.33;81.26
33554;BME280;19885;42.208;24.952;2023-01-29T13:31:57;100209.03;;;7.41;81.48
33554;BME280;19885;42.208;24.952;2023-01-29T13:34:26;100217.91;;;7.51;81.61
33554;BME280;19885;42.208;24.952;2023-01-29T13:36:55;100213.91;;;6.96;83.74
33554;BME280;19885;42.208;24.952;2023-01-29T13:39:34;100211.03;;;7.18;83.68
33554;BME280;19885;42.208;24.952;2023-01-29T13:42:14;100206.84;;;7.24;83.01
33554;BME280;19885;42.208;24.952;2023-01-29T13:44:42;100215.22;;;7.13;84.11
33554;BME280;19885;42.208;24.952;2023-01-29T13:47:24;100220.53;;;6.85;85.28
33554;BME280;19885;42.208;24.952;2023-01-29T13:49:55;100216.44;;;6.62;86.94
33554;BME280;19885;42.208;24.952;2023-01-29T13:57:52;100216.66;;;6.12;90.55
33554;BME280;19885;42.208;24.952;2023-01-29T14:02:49;100228.53;;;5.78;92.41
33554;BME280;19885;42.208;24.952;2023-01-29T14:05:43;100223.00;;;5.41;92.86
33554;BME280;19885;42.208;24.952;2023-01-29T14:13:47;100224.25;;;5.27;94.44
33554;BME280;19885;42.208;24.952;2023-01-29T14:18:47;100207.38;;;5.12;94.62
33554;BME280;19885;42.208;24.952;2023-01-29T14:23:51;100227.38;;;5.17;95.27
33554;BME280;19885;42.208;24.952;2023-01-29T14:31:40;100239.84;;;5.29;95.32
33554;BME280;19885;42.208;24.952;2023-01-29T14:34:15;100242.25;;;5.49;95.36
33554;BME280;19885;42.208;24.952;2023-01-29T14:36:44;100243.66;;;5.40;95.17
33554;BME280;19885;42.208;24.952;2023-01-29T14:39:27;100245.50;;;5.44;94.45
33554;BME280;19885;42.208;24.952;2023-01-29T14:41:54;100232.31;;;5.11;94.86
33554;BME280;19885;42.208;24.952;2023-01-29T14:49:49;100255.56;;;5.11;94.83
33554;BME280;19885;42.208;24.952;2023-01-29T14:52:16;100250.56;;;4.90;96.28
33554;BME280;19885;42.208;24.952;2023-01-29T14:54:45;100260.59;;;4.83;95.50
33554;BME280;19885;42.208;24.952;2023-01-29T14:57:14;100252.38;;;4.69;96.46
33554;BME280;19885;42.208;24.952;2023-01-29T15:00:00;100253.00;;;4.64;97.79
33554;BME280;19885;42.208;24.952;2023-01-29T15:02:37;100259.16;;;4.44;98.64
33554;BME280;19885;42.208;24.952;2023-01-29T15:05:08;100246.84;;;4.37;98.29
33554;BME280;19885;42.208;24.952;2023-01-29T15:07:40;100166.59;;;4.05;98.20
33554;BME280;19885;42.208;24.952;2023-01-29T15:10:16;100242.53;;;4.36;98.71
33554;BME280;19885;42.208;24.952;2023-01-29T15:18:36;100188.22;;;3.87;100.00
33554;BME280;19885;42.208;24.952;2023-01-29T15:21:10;100261.75;;;4.21;100.00
33554;BME280;19885;42.208;24.952;2023-01-29T15:23:39;100263.41;;;4.19;100.00
33554;BME280;19885;42.208;24.952;2023-01-29T15:26:10;100253.88;;;4.18;100.00
33554;BME280;19885;42.208;24.952;2023-01-29T15:28:39;100277.91;;;4.40;100.00
33554;BME280;19885;42.208;24.952;2023-01-29T15:31:07;100273.66;;;4.40;100.00
33554;BME280;19885;42.208;24.952;2023-01-29T15:33:36;100279.03;;;4.24;100.00
33554;BME280;19885;42.208;24.952;2023-01-29T15:36:05;100277.34;;;4.24;100.00
33554;BME280;19885;42.208;24.952;2023-01-29T15:38:31;100280.59;;;4.20;100.00
33554;BME280;19885;42.208;24.952;2023-01-29T15:43:26;100278.63;;;4.36;99.94
33554;BME280;19885;42.208;24.952;2023-01-29T15:45:54;100233.75;;;4.08;99.63
33554;BME280;19885;42.208;24.952;2023-01-29T15:48:35;100287.19;;;4.34;99.70